LPPD/PDL METAR and TAF weather

Enter ICAO airport designator
Station Type Date Time Source
LPPD METAR 2019/12/11 12:00 UTC NOAA

LPPD 111200Z 05009KT 020V090 9999 FEW020 BKN040 15/07 Q1041


Station Type Date Time Source
LPPD Decoded METAR 2019/12/11 12:00 UTC NOAA

Ponta Delgada / Nordela Acores , Portugal (LPPD) 37-44N 025-42W 72M
Dec 11, 2019 - 07:00 AM EST / 2019.12.11 1200 UTC
Wind: from the NE (050 degrees) at 10 MPH (9 KT) (direction variable):0
Visibility: greater than 7 mile(s):0
Sky conditions: mostly cloudy
Temperature: 59 F (15 C)
Dew Point: 44 F (7 C)
Relative Humidity: 58%
Pressure (altimeter): 30.74 in. Hg (1041 hPa)
ob: LPPD 111200Z 05009KT 020V090 9999 FEW020 BKN040 15/07 Q1041
cycle: 12

Station Type Date Time Source
LPPD TAF 2019/12/11 12:18 UTC NOAA

TAF LPPD 111100Z 1112/1212 06010KT 9999 FEW020 BKN040
BECMG 1119/1122 VRB05KT

Example: see airport list